createdAt,value
2018-09-09T00:01:11.010Z,2.97
2018-09-09T00:03:39.569Z,2.90
2018-09-09T00:06:08.109Z,3.10
2018-09-09T00:08:36.677Z,3.80
2018-09-09T00:11:05.298Z,3.63
2018-09-09T00:13:34.020Z,3.23
2018-09-09T00:16:02.550Z,3.17
2018-09-09T00:18:31.134Z,2.77
2018-09-09T00:20:59.645Z,3.07
2018-09-09T00:23:28.201Z,2.67
2018-09-09T00:25:56.751Z,2.77
2018-09-09T00:28:25.363Z,3.03
2018-09-09T00:30:53.936Z,2.57
2018-09-09T00:33:22.477Z,2.50
2018-09-09T00:35:51.076Z,2.97
2018-09-09T00:38:19.613Z,2.70
2018-09-09T00:40:48.233Z,2.93
2018-09-09T00:43:16.776Z,2.80
2018-09-09T00:45:45.293Z,2.23
2018-09-09T00:48:13.870Z,2.80
2018-09-09T00:50:47.845Z,2.60
2018-09-09T00:53:21.804Z,3.07
2018-09-09T00:55:50.371Z,2.70
2018-09-09T00:58:18.960Z,2.57
2018-09-09T01:00:52.863Z,2.40
2018-09-09T01:03:21.423Z,3.50
2018-09-09T01:05:49.985Z,3.27
2018-09-09T01:08:18.543Z,3.20
2018-09-09T01:10:47.101Z,3.00
2018-09-09T01:13:15.624Z,2.70
2018-09-09T01:15:44.166Z,2.60
2018-09-09T01:18:12.758Z,3.30
2018-09-09T01:20:41.294Z,2.40
2018-09-09T01:23:09.812Z,3.70
2018-09-09T01:25:38.382Z,2.60
2018-09-09T01:28:06.911Z,2.73
2018-09-09T01:30:35.461Z,2.40
2018-09-09T01:33:04.125Z,3.20
2018-09-09T01:35:32.737Z,3.13
2018-09-09T01:38:01.263Z,2.97
2018-09-09T01:40:29.825Z,2.40
2018-09-09T01:42:58.357Z,2.80
2018-09-09T01:45:27.041Z,2.97
2018-09-09T01:47:55.577Z,3.10
2018-09-09T01:50:24.156Z,2.60
2018-09-09T01:52:52.693Z,3.00
2018-09-09T01:55:21.269Z,2.63
2018-09-09T01:57:49.816Z,2.73
2018-09-09T02:00:18.415Z,3.20
2018-09-09T02:02:47.066Z,2.93
2018-09-09T02:05:15.647Z,2.63
2018-09-09T02:07:44.180Z,2.90
2018-09-09T02:10:12.758Z,3.13
2018-09-09T02:12:41.310Z,3.67
2018-09-09T02:15:09.942Z,3.37
2018-09-09T02:17:38.545Z,3.10
2018-09-09T02:20:07.154Z,2.50
2018-09-09T02:22:35.702Z,2.37
2018-09-09T02:25:04.483Z,2.57
2018-09-09T02:27:33.042Z,2.90
2018-09-09T02:30:01.661Z,2.90
2018-09-09T02:32:30.172Z,2.97
2018-09-09T02:34:58.707Z,3.67
2018-09-09T02:37:27.256Z,2.70
2018-09-09T02:39:55.862Z,2.77
2018-09-09T02:42:33.845Z,2.80
2018-09-09T02:45:02.490Z,3.10
2018-09-09T02:47:31.029Z,3.13
2018-09-09T02:49:59.619Z,2.70
2018-09-09T02:52:28.166Z,2.87
2018-09-09T02:54:56.758Z,3.13
2018-09-09T02:57:25.320Z,2.50
2018-09-09T02:59:53.866Z,2.53
2018-09-09T03:02:22.409Z,2.57
2018-09-09T03:04:50.991Z,2.53
2018-09-09T03:07:20.634Z,2.73
2018-09-09T03:09:49.197Z,3.33
2018-09-09T03:12:17.734Z,2.47
2018-09-09T03:14:46.297Z,2.60
2018-09-09T03:17:14.849Z,2.67
2018-09-09T03:19:43.382Z,3.03
2018-09-09T03:22:12.051Z,2.70
2018-09-09T03:24:40.606Z,2.77
2018-09-09T03:27:09.168Z,2.43
2018-09-09T03:29:37.717Z,2.40
2018-09-09T03:32:06.317Z,3.20
2018-09-09T03:34:34.859Z,2.70
2018-09-09T03:37:03.398Z,2.90
2018-09-09T03:39:31.981Z,2.87
2018-09-09T03:42:00.661Z,2.87
2018-09-09T03:44:29.230Z,3.03
2018-09-09T03:46:57.804Z,2.70
2018-09-09T03:49:26.363Z,3.00
2018-09-09T03:51:54.946Z,2.60
2018-09-09T03:54:23.505Z,3.60
2018-09-09T03:56:52.256Z,3.47
2018-09-09T03:59:20.802Z,2.70
2018-09-09T04:01:49.375Z,3.23
2018-09-09T04:04:17.933Z,4.40
2018-09-09T04:06:47.572Z,3.20
2018-09-09T04:09:16.154Z,3.23
2018-09-09T04:11:44.719Z,3.80
2018-09-09T04:14:13.262Z,3.40
2018-09-09T04:16:41.847Z,3.27
2018-09-09T04:19:10.407Z,3.10
2018-09-09T04:21:49.101Z,2.73
2018-09-09T04:24:17.671Z,3.33
2018-09-09T04:26:46.318Z,2.73
2018-09-09T04:29:15.218Z,3.40
2018-09-09T04:31:43.909Z,2.90
2018-09-09T04:34:12.819Z,3.87
2018-09-09T04:36:41.833Z,3.23
2018-09-09T04:39:13.142Z,2.90
2018-09-09T04:41:42.982Z,3.17
2018-09-09T04:44:12.992Z,3.10
2018-09-09T04:46:41.618Z,3.00
2018-09-09T04:49:10.581Z,3.43
2018-09-09T04:51:39.386Z,3.20
2018-09-09T04:54:08.045Z,3.10
2018-09-09T04:56:36.639Z,3.33
2018-09-09T04:59:05.276Z,2.93
2018-09-09T05:01:33.861Z,3.50
2018-09-09T05:04:02.498Z,3.20
2018-09-09T05:06:31.091Z,2.97
2018-09-09T05:08:59.659Z,3.13
2018-09-09T05:11:28.249Z,2.73
2018-09-09T05:13:56.803Z,2.87
2018-09-09T05:16:25.411Z,2.37
2018-09-09T05:18:54.021Z,2.87
2018-09-09T05:21:22.612Z,3.40
2018-09-09T05:23:51.199Z,2.90
2018-09-09T05:26:19.890Z,3.03
2018-09-09T05:28:48.514Z,3.10
2018-09-09T05:31:17.128Z,3.03
2018-09-09T05:33:45.717Z,3.37
2018-09-09T05:36:14.371Z,3.17
2018-09-09T05:38:42.964Z,3.00
2018-09-09T05:41:11.555Z,3.27
2018-09-09T05:43:40.192Z,2.70
2018-09-09T05:46:08.793Z,3.53
2018-09-09T05:48:37.383Z,3.00
2018-09-09T05:51:06.857Z,3.23
2018-09-09T05:53:35.536Z,3.57
2018-09-09T05:56:04.171Z,2.93
2018-09-09T05:58:32.746Z,3.20
2018-09-09T06:01:01.451Z,3.77
2018-09-09T06:03:30.020Z,3.50
2018-09-09T06:05:58.717Z,3.40
2018-09-09T06:08:27.309Z,3.17
2018-09-09T06:10:56.038Z,3.40
2018-09-09T06:13:25.875Z,3.40
2018-09-09T06:15:54.465Z,3.73
2018-09-09T06:18:23.045Z,3.20
2018-09-09T06:20:51.707Z,3.23
2018-09-09T06:23:20.339Z,3.43
2018-09-09T06:25:48.935Z,3.17
2018-09-09T06:28:17.595Z,3.03
2018-09-09T06:30:46.118Z,3.63
2018-09-09T06:33:14.733Z,3.60
2018-09-09T06:35:43.423Z,3.50
2018-09-09T06:38:12.011Z,3.30
2018-09-09T06:40:40.619Z,3.00
2018-09-09T06:43:09.389Z,3.73
2018-09-09T06:45:38.003Z,3.90
2018-09-09T06:48:06.714Z,3.57
2018-09-09T06:50:35.374Z,3.20
2018-09-09T06:53:03.985Z,3.80
2018-09-09T06:55:32.670Z,3.80
2018-09-09T06:58:01.183Z,3.90
2018-09-09T07:00:29.765Z,3.37
2018-09-09T07:02:58.375Z,3.87
2018-09-09T07:05:26.941Z,3.57
2018-09-09T07:07:55.750Z,3.50
2018-09-09T07:10:24.330Z,2.93
2018-09-09T07:12:52.924Z,3.90
2018-09-09T07:15:21.495Z,3.63
2018-09-09T07:17:50.121Z,3.80
2018-09-09T07:20:18.723Z,3.40
2018-09-09T07:22:47.355Z,3.50
2018-09-09T07:25:15.960Z,4.90
2018-09-09T07:27:44.579Z,3.97
2018-09-09T07:30:13.328Z,3.37
2018-09-09T07:32:41.979Z,4.33
2018-09-09T07:35:10.562Z,3.63
2018-09-09T07:37:39.218Z,3.83
2018-09-09T07:40:07.874Z,4.00
2018-09-09T07:42:36.468Z,4.20
2018-09-09T07:45:05.121Z,4.10
2018-09-09T07:47:33.746Z,3.50
2018-09-09T07:50:02.421Z,3.30
2018-09-09T07:52:31.073Z,4.73
2018-09-09T07:54:59.674Z,3.77
2018-09-09T07:57:28.341Z,3.93
2018-09-09T07:59:56.938Z,3.93
2018-09-09T08:02:25.587Z,3.77
2018-09-09T08:04:54.248Z,4.13
2018-09-09T08:07:22.931Z,4.27
2018-09-09T08:09:51.547Z,3.80
2018-09-09T08:12:20.162Z,4.20
2018-09-09T08:14:48.735Z,4.07
2018-09-09T08:17:17.382Z,4.53
2018-09-09T08:19:46.015Z,4.87
2018-09-09T08:22:14.646Z,3.87
2018-09-09T08:24:43.276Z,3.57
2018-09-09T08:27:11.966Z,3.97
2018-09-09T08:29:40.772Z,3.87
2018-09-09T08:32:09.400Z,3.63
2018-09-09T08:34:38.082Z,3.13
2018-09-09T08:37:06.713Z,3.80
2018-09-09T08:39:35.306Z,3.50
2018-09-09T08:42:04.075Z,2.93
2018-09-09T08:44:32.785Z,3.23
2018-09-09T08:47:01.446Z,2.80
2018-09-09T08:49:30.184Z,2.93
2018-09-09T08:51:58.916Z,3.37
2018-09-09T08:54:27.508Z,3.30
2018-09-09T08:56:56.128Z,2.93
2018-09-09T08:59:24.755Z,3.30
2018-09-09T09:01:53.358Z,3.97
2018-09-09T09:04:22.043Z,2.80
2018-09-09T09:06:50.660Z,3.03
2018-09-09T09:09:19.328Z,2.23
2018-09-09T09:11:47.887Z,2.17
2018-09-09T09:14:16.591Z,2.00
2018-09-09T09:16:45.195Z,2.50
2018-09-09T09:19:13.838Z,2.27
2018-09-09T09:21:42.422Z,2.70
2018-09-09T09:24:11.166Z,2.00
2018-09-09T09:26:39.769Z,2.20
2018-09-09T09:29:08.392Z,2.03
2018-09-09T09:31:38.154Z,2.13
2018-09-09T09:34:06.791Z,1.93
2018-09-09T09:36:35.469Z,2.00
2018-09-09T09:39:05.288Z,1.80
2018-09-09T09:41:34.012Z,1.90
2018-09-09T09:44:02.643Z,2.00
2018-09-09T09:46:31.242Z,1.57
2018-09-09T09:48:59.934Z,2.00
2018-09-09T09:51:28.531Z,1.50
2018-09-09T09:53:57.130Z,1.70
2018-09-09T09:56:25.734Z,1.90
2018-09-09T09:58:54.382Z,1.77
2018-09-09T10:01:23.036Z,1.50
2018-09-09T10:03:51.651Z,1.90
2018-09-09T10:06:20.270Z,1.43
2018-09-09T10:08:48.977Z,1.70
2018-09-09T10:11:17.701Z,1.20
2018-09-09T10:13:46.350Z,1.30
2018-09-09T10:16:15.107Z,1.53
2018-09-09T10:18:43.770Z,1.40
2018-09-09T10:21:12.406Z,1.37
2018-09-09T10:23:41.123Z,1.77
2018-09-09T10:26:09.818Z,1.40
2018-09-09T10:28:38.601Z,1.67
2018-09-09T10:31:07.259Z,1.67
2018-09-09T10:33:35.894Z,1.40
2018-09-09T10:36:04.607Z,1.80
2018-09-09T10:38:33.338Z,1.70
2018-09-09T10:41:02.051Z,1.17
2018-09-09T10:43:30.682Z,1.20
2018-09-09T10:45:59.382Z,1.00
2018-09-09T10:48:28.098Z,1.30
2018-09-09T10:50:56.713Z,1.30
2018-09-09T10:53:25.395Z,1.20
2018-09-09T10:55:54.020Z,1.17
2018-09-09T10:58:22.784Z,1.17
2018-09-09T11:00:51.535Z,1.30
2018-09-09T11:03:20.196Z,1.10
2018-09-09T11:05:48.850Z,1.00
2018-09-09T11:08:18.039Z,1.13
2018-09-09T11:10:47.043Z,1.10
2018-09-09T11:13:15.703Z,1.20
2018-09-09T11:15:44.342Z,1.27
2018-09-09T11:18:12.994Z,1.40
2018-09-09T11:20:41.667Z,1.10
2018-09-09T11:23:10.358Z,0.83
2018-09-09T11:25:38.991Z,1.10
2018-09-09T11:28:07.747Z,1.30
2018-09-09T11:30:36.445Z,1.20
2018-09-09T11:33:05.364Z,1.00
2018-09-09T11:35:34.037Z,1.30
2018-09-09T11:38:02.699Z,1.60
2018-09-09T11:40:31.431Z,1.10
2018-09-09T11:43:00.070Z,1.30
2018-09-09T11:45:28.758Z,1.00
2018-09-09T11:47:57.409Z,1.40
2018-09-09T11:50:26.180Z,1.10
2018-09-09T11:52:54.910Z,1.10
2018-09-09T11:55:23.636Z,1.97
2018-09-09T11:57:52.428Z,1.50
2018-09-09T12:00:21.184Z,1.17
2018-09-09T12:02:49.830Z,1.20
2018-09-09T12:05:18.585Z,1.03
2018-09-09T12:07:47.360Z,1.00
2018-09-09T12:10:16.135Z,1.20
2018-09-09T12:12:44.855Z,1.10
2018-09-09T12:15:13.565Z,1.13
2018-09-09T12:17:42.351Z,1.10
2018-09-09T12:20:11.163Z,1.10
2018-09-09T12:22:39.928Z,1.20
2018-09-09T12:25:08.844Z,1.33
2018-09-09T12:27:37.635Z,1.40
2018-09-09T12:30:06.841Z,1.20
2018-09-09T12:32:35.666Z,1.50
2018-09-09T12:35:04.730Z,1.20
2018-09-09T12:37:33.531Z,1.10
2018-09-09T12:40:02.232Z,1.30
2018-09-09T12:42:30.959Z,1.10
2018-09-09T12:45:05.091Z,1.10
2018-09-09T12:47:39.059Z,1.37
2018-09-09T12:50:08.031Z,1.40
2018-09-09T12:52:36.860Z,1.20
2018-09-09T12:55:05.825Z,1.20
2018-09-09T12:57:34.674Z,1.00
2018-09-09T13:00:03.431Z,1.00
2018-09-09T13:02:32.287Z,1.13
2018-09-09T13:05:01.174Z,1.07
2018-09-09T13:07:29.956Z,1.20
2018-09-09T13:09:58.740Z,1.10
2018-09-09T13:12:32.483Z,1.20
2018-09-09T13:15:01.383Z,1.37
2018-09-09T13:17:30.304Z,1.77
2018-09-09T13:19:59.076Z,1.10
2018-09-09T13:22:28.033Z,1.03
2018-09-09T13:24:56.988Z,0.90
2018-09-09T13:27:25.816Z,1.20
2018-09-09T13:29:54.734Z,1.27
2018-09-09T13:32:23.783Z,1.30
2018-09-09T13:34:52.559Z,1.43
2018-09-09T13:37:21.530Z,1.20
2018-09-09T13:39:50.213Z,1.07
2018-09-09T13:42:19.348Z,1.00
2018-09-09T13:44:48.073Z,1.10
2018-09-09T13:47:16.949Z,1.10
2018-09-09T13:49:45.803Z,1.10
2018-09-09T13:52:14.814Z,0.90
2018-09-09T13:54:43.666Z,1.10
2018-09-09T13:57:12.536Z,1.10
2018-09-09T13:59:41.551Z,1.30
2018-09-09T14:02:10.467Z,1.13
2018-09-09T14:04:39.464Z,0.90
2018-09-09T14:07:08.575Z,1.30
2018-09-09T14:09:37.448Z,1.30
2018-09-09T14:12:06.049Z,0.90
2018-09-09T14:14:35.158Z,1.17
2018-09-09T14:17:04.214Z,0.90
2018-09-09T14:19:33.023Z,1.10
2018-09-09T14:22:01.846Z,0.90
2018-09-09T14:24:30.696Z,1.13
2018-09-09T14:26:59.917Z,1.20
2018-09-09T14:29:28.925Z,1.20
2018-09-09T14:31:57.981Z,1.20
2018-09-09T14:34:27.634Z,1.10
2018-09-09T14:36:56.586Z,1.00
2018-09-09T14:39:25.590Z,1.10
2018-09-09T14:41:54.549Z,1.10
2018-09-09T14:44:23.619Z,1.00
2018-09-09T14:46:52.450Z,0.90
2018-09-09T14:49:21.364Z,1.00
2018-09-09T14:51:50.183Z,0.90
2018-09-09T14:54:19.165Z,0.97
2018-09-09T14:56:48.359Z,1.07
2018-09-09T14:59:17.811Z,1.03
2018-09-09T15:01:46.744Z,0.83
2018-09-09T15:04:15.938Z,0.90
2018-09-09T15:06:45.019Z,1.00
2018-09-09T15:09:13.951Z,0.97
2018-09-09T15:11:42.914Z,1.10
2018-09-09T15:14:11.765Z,1.07
2018-09-09T15:16:40.545Z,1.10
2018-09-09T15:19:09.573Z,1.00
2018-09-09T15:21:38.486Z,1.20
2018-09-09T15:24:07.539Z,0.87
2018-09-09T15:26:36.763Z,0.90
2018-09-09T15:29:05.822Z,0.93
2018-09-09T15:31:34.833Z,1.00
2018-09-09T15:34:03.788Z,0.90
2018-09-09T15:36:32.649Z,1.00
2018-09-09T15:39:01.553Z,0.90
2018-09-09T15:41:30.499Z,1.00
2018-09-09T15:43:59.628Z,0.80
2018-09-09T15:46:29.123Z,1.20
2018-09-09T15:48:58.188Z,0.90
2018-09-09T15:51:27.236Z,1.13
2018-09-09T15:53:56.324Z,1.20
2018-09-09T15:56:25.135Z,1.07
2018-09-09T15:58:54.200Z,1.00
2018-09-09T16:01:23.966Z,1.63
2018-09-09T16:03:52.883Z,1.10
2018-09-09T16:06:21.841Z,1.17
2018-09-09T16:08:50.789Z,1.30
2018-09-09T16:11:19.754Z,1.20
2018-09-09T16:13:48.641Z,0.93
2018-09-09T16:16:17.344Z,1.20
2018-09-09T16:18:46.026Z,0.97
2018-09-09T16:21:14.584Z,1.13
2018-09-09T16:23:43.178Z,0.90
2018-09-09T16:26:11.898Z,1.27
2018-09-09T16:28:40.538Z,0.70
2018-09-09T16:31:09.108Z,1.00
2018-09-09T16:33:37.718Z,1.17
2018-09-09T16:36:06.340Z,1.20
2018-09-09T16:38:34.899Z,0.93
2018-09-09T16:41:03.523Z,0.87
2018-09-09T16:43:32.115Z,1.10
2018-09-09T16:46:00.791Z,1.30
2018-09-09T16:48:29.518Z,0.93
2018-09-09T16:50:58.096Z,0.90
2018-09-09T16:53:26.755Z,1.00
2018-09-09T16:55:55.379Z,1.10
2018-09-09T16:58:24.033Z,0.90
2018-09-09T17:00:52.639Z,1.30
2018-09-09T17:03:21.277Z,0.93
2018-09-09T17:05:49.991Z,0.93
2018-09-09T17:08:18.621Z,1.00
2018-09-09T17:10:47.233Z,1.10
2018-09-09T17:13:15.877Z,1.00
2018-09-09T17:15:44.463Z,0.97
2018-09-09T17:18:13.103Z,0.80
2018-09-09T17:20:41.722Z,1.10
2018-09-09T17:23:10.349Z,0.97
2018-09-09T17:25:38.948Z,1.00
2018-09-09T17:28:07.562Z,1.30
2018-09-09T17:30:36.195Z,1.23
2018-09-09T17:33:04.807Z,1.17
2018-09-09T17:35:33.367Z,1.57
2018-09-09T17:38:02.026Z,1.00
2018-09-09T17:40:30.604Z,1.27
2018-09-09T17:42:59.247Z,1.50
2018-09-09T17:45:27.858Z,1.20
2018-09-09T17:47:56.437Z,2.10
2018-09-09T17:50:25.019Z,1.90
2018-09-09T17:52:53.694Z,1.87
2018-09-09T17:55:22.264Z,1.83
2018-09-09T17:57:50.932Z,1.53
2018-09-09T18:00:19.504Z,1.50
2018-09-09T18:02:48.270Z,1.40
2018-09-09T18:05:16.807Z,2.00
2018-09-09T18:07:45.438Z,2.07
2018-09-09T18:10:14.025Z,1.80
2018-09-09T18:12:42.674Z,1.20
2018-09-09T18:15:11.242Z,1.43
2018-09-09T18:17:39.887Z,1.87
2018-09-09T18:20:08.859Z,1.50
2018-09-09T18:22:37.131Z,1.80
2018-09-09T18:25:05.798Z,1.50
2018-09-09T18:27:34.482Z,1.90
2018-09-09T18:30:03.274Z,1.80
2018-09-09T18:32:32.105Z,1.60
2018-09-09T18:35:00.993Z,1.77
2018-09-09T18:37:29.607Z,1.70
2018-09-09T18:39:58.481Z,1.77
2018-09-09T18:42:27.090Z,1.80
2018-09-09T18:44:56.063Z,1.37
2018-09-09T18:47:24.630Z,1.87
2018-09-09T18:49:53.239Z,1.73
2018-09-09T18:52:21.882Z,2.00
2018-09-09T18:54:50.583Z,1.83
2018-09-09T18:57:19.186Z,1.30
2018-09-09T18:59:47.847Z,1.30
2018-09-09T19:02:16.490Z,1.60
2018-09-09T19:04:45.127Z,1.23
2018-09-09T19:07:13.716Z,1.40
2018-09-09T19:09:42.331Z,1.50
2018-09-09T19:12:10.994Z,1.67
2018-09-09T19:14:39.603Z,1.70
2018-09-09T19:17:08.237Z,1.40
2018-09-09T19:19:36.838Z,1.30
2018-09-09T19:22:05.431Z,1.43
2018-09-09T19:24:34.059Z,1.40
2018-09-09T19:27:02.620Z,1.90
2018-09-09T19:29:31.299Z,1.20
2018-09-09T19:31:59.887Z,1.33
2018-09-09T19:34:28.513Z,1.53
2018-09-09T19:36:57.109Z,1.33
2018-09-09T19:39:25.747Z,1.57
2018-09-09T19:41:54.368Z,1.37
2018-09-09T19:44:23.010Z,1.40
2018-09-09T19:46:51.748Z,1.30
2018-09-09T19:49:20.471Z,1.80
2018-09-09T19:51:49.146Z,1.80
2018-09-09T19:54:17.904Z,1.30
2018-09-09T19:56:46.530Z,1.30
2018-09-09T19:59:17.158Z,1.47
2018-09-09T20:01:45.775Z,1.80
2018-09-09T20:04:14.416Z,1.33
2018-09-09T20:06:43.129Z,1.53
2018-09-09T20:09:11.670Z,1.50
2018-09-09T20:11:40.301Z,1.40
2018-09-09T20:14:08.860Z,1.60
2018-09-09T20:16:37.576Z,1.60
2018-09-09T20:19:06.526Z,1.80
2018-09-09T20:21:35.140Z,1.60
2018-09-09T20:24:03.801Z,1.90
2018-09-09T20:26:32.398Z,1.70
2018-09-09T20:29:00.983Z,2.00
2018-09-09T20:31:29.623Z,2.00
2018-09-09T20:33:58.246Z,1.40
2018-09-09T20:36:26.883Z,1.83
2018-09-09T20:38:55.423Z,1.47
2018-09-09T20:41:24.069Z,1.53
2018-09-09T20:43:52.618Z,1.67
2018-09-09T20:46:21.200Z,1.80
2018-09-09T20:48:49.827Z,1.23
2018-09-09T20:51:18.409Z,2.10
2018-09-09T20:53:46.992Z,1.53
2018-09-09T20:56:15.600Z,1.40
2018-09-09T20:58:44.179Z,1.50
2018-09-09T21:01:12.771Z,1.67
2018-09-09T21:03:41.401Z,1.60
2018-09-09T21:06:10.019Z,1.50
2018-09-09T21:08:38.598Z,1.60
2018-09-09T21:11:07.347Z,1.70
2018-09-09T21:13:36.076Z,1.47
2018-09-09T21:16:04.667Z,1.90
2018-09-09T21:18:33.315Z,1.80
2018-09-09T21:21:01.925Z,1.67
2018-09-09T21:23:30.514Z,1.93
2018-09-09T21:25:59.110Z,1.80
2018-09-09T21:28:27.714Z,1.50
2018-09-09T21:30:56.291Z,1.67
2018-09-09T21:33:24.937Z,1.70
2018-09-09T21:35:53.703Z,1.90
2018-09-09T21:38:22.283Z,1.67
2018-09-09T21:40:50.868Z,1.90
2018-09-09T21:43:19.550Z,1.80
2018-09-09T21:45:48.118Z,2.00
2018-09-09T21:48:16.721Z,1.67
2018-09-09T21:50:45.295Z,1.77
2018-09-09T21:53:13.891Z,2.63
2018-09-09T21:55:42.510Z,1.97
2018-09-09T21:58:11.126Z,1.67
2018-09-09T22:01:45.397Z,1.63
2018-09-09T22:04:14.020Z,2.00
2018-09-09T22:06:42.601Z,2.10
2018-09-09T22:09:11.211Z,1.70
2018-09-09T22:11:39.824Z,2.10
2018-09-09T22:14:08.443Z,1.80
2018-09-09T22:16:37.066Z,2.20
2018-09-09T22:19:05.699Z,1.93
2018-09-09T22:21:34.357Z,1.90
2018-09-09T22:24:02.922Z,2.00
2018-09-09T22:26:31.502Z,2.00
2018-09-09T22:29:00.101Z,1.60
2018-09-09T22:31:28.658Z,1.90
2018-09-09T22:33:57.360Z,2.10
2018-09-09T22:36:25.994Z,2.20
2018-09-09T22:38:54.581Z,1.90
2018-09-09T22:41:23.164Z,2.20
2018-09-09T22:43:51.845Z,2.40
2018-09-09T22:46:20.459Z,2.23
2018-09-09T22:48:49.073Z,2.50
2018-09-09T22:51:17.669Z,2.07
2018-09-09T22:53:46.311Z,1.70
2018-09-09T22:56:14.907Z,1.80
2018-09-09T22:58:43.494Z,2.17
2018-09-09T23:01:12.193Z,1.93
2018-09-09T23:03:40.758Z,1.80
2018-09-09T23:06:09.358Z,2.17
2018-09-09T23:08:37.928Z,1.80
2018-09-09T23:11:06.544Z,2.07
2018-09-09T23:13:35.232Z,1.63
2018-09-09T23:16:03.882Z,2.50
2018-09-09T23:18:32.514Z,2.23
2018-09-09T23:21:01.101Z,2.10
2018-09-09T23:23:29.702Z,2.30
2018-09-09T23:25:58.357Z,2.33
2018-09-09T23:28:26.949Z,2.30
2018-09-09T23:30:55.670Z,1.53
2018-09-09T23:33:24.238Z,2.00
2018-09-09T23:35:52.876Z,2.23
2018-09-09T23:38:21.460Z,2.70
2018-09-09T23:40:50.044Z,1.80
2018-09-09T23:43:18.680Z,1.57
2018-09-09T23:45:47.258Z,2.27
2018-09-09T23:48:15.872Z,1.80
2018-09-09T23:50:44.499Z,1.63
2018-09-09T23:53:13.041Z,2.23
2018-09-09T23:55:41.615Z,2.10
2018-09-09T23:58:10.232Z,1.70
